SLCBSLOR

Guest
Details From SLCB - JORGE WILSTERMAN
To SLOR - JUAN MENDOZA
Flight Number -
Tags generated
Created
Modified
Stats Distance 61 nm / 113 km
Max Altitude 18,000 ft / 5,486 m
Waypoints 4
Social Downloads 1
Likes 0
Share

Download

Looking for another format? Having issues loading an existing format? Contact us
Advertisement - Login to hide

Notes

Basic altitude profile: - Ascent Rate: 2500ft/min - Ascent Speed: 250kts - Cruise Altitude: 35000ft - Cruise Speed: 420kts - Descent Rate: 1500ft/min - Descent Speed: 250kts Options: - Use NATs: yes - Use PACOTS: yes - Use low airways: yes - Use high airways: yes

Route

SLCB CBA W13 PAROT SLOR

ID Type Via Altitude (ft/m) Position (lat/lon) Dist (leg/tot) Name
O SLCB APT - 0 / 0 -17.42039 / -66.17717 - / 0 nm JORGE WILSTERMAN
CBA VOR - 0 / 0 -17.42126 / -66.17904 0 / 0 nm COCHABAMBA VOR-DME
PAROT FIX W13 (AWY-LO) 18,000 / 5,486 -17.61074 / -66.47044 20 / 20 nm
O SLOR APT - 0 / 0 -17.96297 / -67.07486 40 / 60 nm JUAN MENDOZA

Altitude Profile

Advertisement - Login to hide

SLCB

Details ICAO SLCB (CBB)
Name Jorge Wilsterman
Region Bolivia
Timezone America/La_Paz (UTC-4.0)
Stats Elevation 8,359 ft / 2,548 m (AMSL)
Location -17.420400° -66.177200°
Runways 2
Magnetic Variation 9.978° W

METAR

SLCB 051400Z 24003KT 9999 SCT025 BKN080 20/11 Q1028

Decode

TAF

TAF SLCB 051000Z 0512/0612 00000KT 9999 SCT030 BKN070 TX29/0519Z TN13/0610Z BECMG 0514/0516 32008KT TEMPO 0519/0522 03015KT VCTS SCT036 FEW040CB BKN070 BECMG 0602/0604 00000KT

Decode

Departure Runways

ID Width Length Bearing (true/mag) Surface Threshold Overrun Markings Lighting
04 148 ft / 45 m 8,718 ft / 2,657 m 37.26° / 47.24° ASPHALT 0 ft / 0 m 0 ft / 0 m PREC-APP EDGE THRESHOLD
14 148 ft / 45 m 12,485 ft / 3,805 m 132.10° / 142.08° ASPHALT 335 ft / 102 m 200 ft / 61 m PREC-APP EDGE THRESHOLD
22 148 ft / 45 m 8,718 ft / 2,657 m 217.26° / 227.24° ASPHALT 732 ft / 223 m 0 ft / 0 m PREC-APP EDGE THRESHOLD
32 148 ft / 45 m 12,485 ft / 3,805 m 312.10° / 322.07° ASPHALT 984 ft / 300 m 200 ft / 61 m PREC-APP EDGE THRESHOLD ALSF-I

SLOR

Details ICAO SLOR (ORU)
Name JUAN MENDOZA
Region Bolivia
Timezone America/La_Paz (UTC-4.0)
Stats Elevation 12,145 ft / 3,702 m (AMSL)
Location -17.955600° -67.075900°
Runways 1
Magnetic Variation 9.050° W

METAR

SLOR 051400Z 32006KT 9999 SCT020 15/04 Q1037

Decode

TAF

Not found

Destination Runways

ID Width Length Bearing (true/mag) Surface Threshold Overrun Markings Lighting
01 148 ft / 45 m 13,181 ft / 4,018 m 2.32° / 11.37° ASPHALT 653 ft / 199 m 0 ft / 0 m PREC-APP EDGE THRESHOLD
19 148 ft / 45 m 13,181 ft / 4,018 m 182.32° / 191.37° ASPHALT 0 ft / 0 m 0 ft / 0 m PREC-APP EDGE THRESHOLD

Popular Alternatives